sensor_id;sensor_type;location;lat;lon;timestamp;P1;durP1;ratioP1;P2;durP2;ratioP2
33154;SDS011;19511;42.682;23.332;2023-02-28T00:01:31;15.80;;;5.57;;
33154;SDS011;19511;42.682;23.332;2023-02-28T00:03:59;9.90;;;4.97;;
33154;SDS011;19511;42.682;23.332;2023-02-28T00:06:25;30.08;;;5.75;;
33154;SDS011;19511;42.682;23.332;2023-02-28T00:08:51;9.45;;;5.43;;
33154;SDS011;19511;42.682;23.332;2023-02-28T00:11:17;19.02;;;5.10;;
33154;SDS011;19511;42.682;23.332;2023-02-28T00:13:50;12.90;;;5.72;;
33154;SDS011;19511;42.682;23.332;2023-02-28T00:16:17;12.65;;;5.53;;
33154;SDS011;19511;42.682;23.332;2023-02-28T00:18:45;24.90;;;5.05;;
33154;SDS011;19511;42.682;23.332;2023-02-28T00:21:16;13.23;;;5.97;;
33154;SDS011;19511;42.682;23.332;2023-02-28T00:23:49;8.38;;;5.30;;
33154;SDS011;19511;42.682;23.332;2023-02-28T00:26:20;11.18;;;5.05;;
33154;SDS011;19511;42.682;23.332;2023-02-28T00:28:45;10.35;;;5.20;;
33154;SDS011;19511;42.682;23.332;2023-02-28T00:31:17;10.95;;;5.45;;
33154;SDS011;19511;42.682;23.332;2023-02-28T00:33:43;10.57;;;6.22;;
33154;SDS011;19511;42.682;23.332;2023-02-28T00:36:09;9.73;;;4.15;;
33154;SDS011;19511;42.682;23.332;2023-02-28T00:38:37;9.80;;;5.78;;
33154;SDS011;19511;42.682;23.332;2023-02-28T00:41:03;13.45;;;7.13;;
33154;SDS011;19511;42.682;23.332;2023-02-28T00:43:29;13.02;;;5.78;;
33154;SDS011;19511;42.682;23.332;2023-02-28T00:45:57;10.00;;;5.97;;
33154;SDS011;19511;42.682;23.332;2023-02-28T00:48:26;13.90;;;5.50;;
33154;SDS011;19511;42.682;23.332;2023-02-28T00:50:59;9.27;;;5.82;;
33154;SDS011;19511;42.682;23.332;2023-02-28T00:53:28;9.10;;;5.13;;
33154;SDS011;19511;42.682;23.332;2023-02-28T00:55:57;13.43;;;6.93;;
33154;SDS011;19511;42.682;23.332;2023-02-28T00:58:23;14.75;;;7.15;;
33154;SDS011;19511;42.682;23.332;2023-02-28T01:00:49;12.45;;;6.57;;
33154;SDS011;19511;42.682;23.332;2023-02-28T01:03:16;12.27;;;5.93;;
33154;SDS011;19511;42.682;23.332;2023-02-28T01:05:42;13.13;;;7.07;;
33154;SDS011;19511;42.682;23.332;2023-02-28T01:08:09;12.88;;;7.25;;
33154;SDS011;19511;42.682;23.332;2023-02-28T01:10:35;13.73;;;7.65;;
33154;SDS011;19511;42.682;23.332;2023-02-28T01:13:02;14.10;;;5.80;;
33154;SDS011;19511;42.682;23.332;2023-02-28T01:15:28;10.77;;;5.05;;
33154;SDS011;19511;42.682;23.332;2023-02-28T01:18:08;14.77;;;6.88;;
33154;SDS011;19511;42.682;23.332;2023-02-28T01:20:36;14.05;;;6.72;;
33154;SDS011;19511;42.682;23.332;2023-02-28T01:23:02;20.10;;;9.77;;
33154;SDS011;19511;42.682;23.332;2023-02-28T01:25:27;15.23;;;7.28;;
33154;SDS011;19511;42.682;23.332;2023-02-28T01:27:57;11.27;;;6.07;;
33154;SDS011;19511;42.682;23.332;2023-02-28T01:30:28;13.65;;;7.82;;
33154;SDS011;19511;42.682;23.332;2023-02-28T01:32:56;12.32;;;7.47;;
33154;SDS011;19511;42.682;23.332;2023-02-28T01:35:21;18.05;;;7.95;;
33154;SDS011;19511;42.682;23.332;2023-02-28T01:37:47;11.50;;;6.55;;
33154;SDS011;19511;42.682;23.332;2023-02-28T01:40:12;15.25;;;7.28;;
33154;SDS011;19511;42.682;23.332;2023-02-28T01:42:38;13.95;;;6.20;;
33154;SDS011;19511;42.682;23.332;2023-02-28T01:47:40;11.45;;;6.25;;
33154;SDS011;19511;42.682;23.332;2023-02-28T01:50:09;16.13;;;8.43;;
33154;SDS011;19511;42.682;23.332;2023-02-28T01:52:41;16.25;;;8.45;;
33154;SDS011;19511;42.682;23.332;2023-02-28T01:55:08;12.88;;;7.05;;
33154;SDS011;19511;42.682;23.332;2023-02-28T01:57:43;13.90;;;7.15;;
33154;SDS011;19511;42.682;23.332;2023-02-28T02:00:17;15.43;;;6.30;;
33154;SDS011;19511;42.682;23.332;2023-02-28T02:02:49;21.13;;;7.85;;
33154;SDS011;19511;42.682;23.332;2023-02-28T02:05:19;20.02;;;7.63;;
33154;SDS011;19511;42.682;23.332;2023-02-28T02:07:50;19.92;;;9.18;;
33154;SDS011;19511;42.682;23.332;2023-02-28T02:10:27;9.30;;;5.17;;
33154;SDS011;19511;42.682;23.332;2023-02-28T02:21:30;18.80;;;8.70;;
33154;SDS011;19511;42.682;23.332;2023-02-28T02:36:51;17.35;;;7.20;;
33154;SDS011;19511;42.682;23.332;2023-02-28T02:39:44;16.27;;;8.40;;
33154;SDS011;19511;42.682;23.332;2023-02-28T02:48:00;20.15;;;8.02;;
33154;SDS011;19511;42.682;23.332;2023-02-28T02:50:30;21.13;;;8.05;;
33154;SDS011;19511;42.682;23.332;2023-02-28T02:53:02;14.73;;;8.45;;
33154;SDS011;19511;42.682;23.332;2023-02-28T02:55:31;22.63;;;8.60;;
33154;SDS011;19511;42.682;23.332;2023-02-28T02:58:04;20.27;;;10.75;;
33154;SDS011;19511;42.682;23.332;2023-02-28T03:00:36;20.83;;;8.32;;
33154;SDS011;19511;42.682;23.332;2023-02-28T03:03:06;24.08;;;10.35;;
33154;SDS011;19511;42.682;23.332;2023-02-28T03:05:35;20.92;;;8.30;;
33154;SDS011;19511;42.682;23.332;2023-02-28T03:08:11;16.65;;;8.95;;
33154;SDS011;19511;42.682;23.332;2023-02-28T03:10:38;29.70;;;12.00;;
33154;SDS011;19511;42.682;23.332;2023-02-28T03:19:03;25.00;;;9.10;;
33154;SDS011;19511;42.682;23.332;2023-02-28T03:30:10;21.15;;;9.88;;
33154;SDS011;19511;42.682;23.332;2023-02-28T03:33:03;29.30;;;9.82;;
33154;SDS011;19511;42.682;23.332;2023-02-28T03:36:22;15.52;;;8.98;;
33154;SDS011;19511;42.682;23.332;2023-02-28T03:41:49;23.02;;;11.07;;
33154;SDS011;19511;42.682;23.332;2023-02-28T03:44:24;18.80;;;8.32;;
33154;SDS011;19511;42.682;23.332;2023-02-28T03:46:58;16.02;;;8.07;;
33154;SDS011;19511;42.682;23.332;2023-02-28T03:52:33;26.42;;;10.27;;
33154;SDS011;19511;42.682;23.332;2023-02-28T03:55:05;32.38;;;12.27;;
33154;SDS011;19511;42.682;23.332;2023-02-28T03:57:45;28.58;;;9.65;;
33154;SDS011;19511;42.682;23.332;2023-02-28T04:00:25;33.78;;;9.05;;
33154;SDS011;19511;42.682;23.332;2023-02-28T04:03:12;18.48;;;11.02;;
33154;SDS011;19511;42.682;23.332;2023-02-28T04:05:49;19.47;;;9.43;;
33154;SDS011;19511;42.682;23.332;2023-02-28T04:08:17;22.58;;;9.98;;
33154;SDS011;19511;42.682;23.332;2023-02-28T04:10:52;36.55;;;12.27;;
33154;SDS011;19511;42.682;23.332;2023-02-28T04:13:26;30.13;;;11.00;;
33154;SDS011;19511;42.682;23.332;2023-02-28T04:15:51;26.00;;;9.82;;
33154;SDS011;19511;42.682;23.332;2023-02-28T04:18:17;30.83;;;12.35;;
33154;SDS011;19511;42.682;23.332;2023-02-28T04:20:42;24.73;;;11.50;;
33154;SDS011;19511;42.682;23.332;2023-02-28T04:23:08;29.52;;;13.27;;
33154;SDS011;19511;42.682;23.332;2023-02-28T04:25:37;35.47;;;12.07;;
33154;SDS011;19511;42.682;23.332;2023-02-28T04:28:13;32.30;;;11.20;;
33154;SDS011;19511;42.682;23.332;2023-02-28T04:30:39;29.73;;;11.27;;
33154;SDS011;19511;42.682;23.332;2023-02-28T04:33:11;32.90;;;12.63;;
33154;SDS011;19511;42.682;23.332;2023-02-28T04:35:37;30.83;;;9.40;;
33154;SDS011;19511;42.682;23.332;2023-02-28T04:38:02;19.77;;;8.88;;
33154;SDS011;19511;42.682;23.332;2023-02-28T04:40:28;19.42;;;10.07;;
33154;SDS011;19511;42.682;23.332;2023-02-28T04:42:54;20.38;;;9.70;;
33154;SDS011;19511;42.682;23.332;2023-02-28T04:45:20;20.05;;;10.70;;
33154;SDS011;19511;42.682;23.332;2023-02-28T04:47:45;31.75;;;11.38;;
33154;SDS011;19511;42.682;23.332;2023-02-28T04:50:17;24.85;;;9.50;;
33154;SDS011;19511;42.682;23.332;2023-02-28T04:52:42;21.02;;;11.02;;
33154;SDS011;19511;42.682;23.332;2023-02-28T04:55:09;23.02;;;9.07;;
33154;SDS011;19511;42.682;23.332;2023-02-28T04:57:41;18.23;;;9.68;;
33154;SDS011;19511;42.682;23.332;2023-02-28T05:00:08;25.67;;;9.80;;
33154;SDS011;19511;42.682;23.332;2023-02-28T05:02:36;25.77;;;9.27;;
33154;SDS011;19511;42.682;23.332;2023-02-28T05:05:03;61.20;;;11.27;;
33154;SDS011;19511;42.682;23.332;2023-02-28T05:07:33;22.70;;;11.57;;
33154;SDS011;19511;42.682;23.332;2023-02-28T05:10:00;22.00;;;10.75;;
33154;SDS011;19511;42.682;23.332;2023-02-28T05:12:26;28.83;;;9.23;;
33154;SDS011;19511;42.682;23.332;2023-02-28T05:14:54;23.88;;;10.38;;
33154;SDS011;19511;42.682;23.332;2023-02-28T05:17:19;36.30;;;11.15;;
33154;SDS011;19511;42.682;23.332;2023-02-28T05:19:47;27.10;;;14.13;;
33154;SDS011;19511;42.682;23.332;2023-02-28T05:22:14;26.60;;;10.70;;
33154;SDS011;19511;42.682;23.332;2023-02-28T05:24:41;22.27;;;12.82;;
33154;SDS011;19511;42.682;23.332;2023-02-28T05:27:11;30.58;;;12.68;;
33154;SDS011;19511;42.682;23.332;2023-02-28T05:29:41;28.60;;;12.23;;
33154;SDS011;19511;42.682;23.332;2023-02-28T05:32:15;35.65;;;12.55;;
33154;SDS011;19511;42.682;23.332;2023-02-28T05:34:41;23.35;;;10.07;;
33154;SDS011;19511;42.682;23.332;2023-02-28T05:37:11;27.38;;;11.88;;
33154;SDS011;19511;42.682;23.332;2023-02-28T05:39:38;32.97;;;9.88;;
33154;SDS011;19511;42.682;23.332;2023-02-28T05:42:03;30.52;;;11.98;;
33154;SDS011;19511;42.682;23.332;2023-02-28T05:44:34;25.52;;;9.27;;
33154;SDS011;19511;42.682;23.332;2023-02-28T05:47:04;32.28;;;11.30;;
33154;SDS011;19511;42.682;23.332;2023-02-28T05:49:32;29.38;;;11.25;;
33154;SDS011;19511;42.682;23.332;2023-02-28T05:51:57;29.48;;;12.93;;
33154;SDS011;19511;42.682;23.332;2023-02-28T05:54:24;25.58;;;12.27;;
33154;SDS011;19511;42.682;23.332;2023-02-28T05:56:49;23.60;;;11.10;;
33154;SDS011;19511;42.682;23.332;2023-02-28T05:59:14;24.52;;;10.80;;
33154;SDS011;19511;42.682;23.332;2023-02-28T06:01:41;38.83;;;12.82;;
33154;SDS011;19511;42.682;23.332;2023-02-28T06:04:13;25.10;;;12.40;;
33154;SDS011;19511;42.682;23.332;2023-02-28T06:06:42;24.42;;;10.73;;
33154;SDS011;19511;42.682;23.332;2023-02-28T06:09:11;31.05;;;9.80;;
33154;SDS011;19511;42.682;23.332;2023-02-28T06:11:37;26.50;;;12.20;;
33154;SDS011;19511;42.682;23.332;2023-02-28T06:14:03;25.60;;;11.15;;
33154;SDS011;19511;42.682;23.332;2023-02-28T06:16:29;31.75;;;12.38;;
33154;SDS011;19511;42.682;23.332;2023-02-28T06:18:57;24.33;;;11.75;;
33154;SDS011;19511;42.682;23.332;2023-02-28T06:21:23;32.95;;;9.32;;
33154;SDS011;19511;42.682;23.332;2023-02-28T06:23:58;25.75;;;12.32;;
33154;SDS011;19511;42.682;23.332;2023-02-28T06:26:27;31.52;;;12.10;;
33154;SDS011;19511;42.682;23.332;2023-02-28T06:28:53;23.95;;;11.60;;
33154;SDS011;19511;42.682;23.332;2023-02-28T06:31:21;33.75;;;13.38;;
33154;SDS011;19511;42.682;23.332;2023-02-28T06:33:49;39.67;;;11.68;;
33154;SDS011;19511;42.682;23.332;2023-02-28T06:36:15;26.75;;;12.50;;
33154;SDS011;19511;42.682;23.332;2023-02-28T06:38:42;21.25;;;11.05;;
33154;SDS011;19511;42.682;23.332;2023-02-28T06:41:09;26.77;;;12.98;;
33154;SDS011;19511;42.682;23.332;2023-02-28T06:43:40;39.47;;;13.57;;
33154;SDS011;19511;42.682;23.332;2023-02-28T06:46:08;26.75;;;12.00;;
33154;SDS011;19511;42.682;23.332;2023-02-28T06:48:40;31.20;;;11.93;;
33154;SDS011;19511;42.682;23.332;2023-02-28T06:51:14;24.83;;;12.43;;
33154;SDS011;19511;42.682;23.332;2023-02-28T06:53:42;43.53;;;13.45;;
33154;SDS011;19511;42.682;23.332;2023-02-28T06:56:12;27.30;;;11.30;;
33154;SDS011;19511;42.682;23.332;2023-02-28T06:58:52;32.13;;;12.75;;
33154;SDS011;19511;42.682;23.332;2023-02-28T07:01:18;32.40;;;13.50;;
33154;SDS011;19511;42.682;23.332;2023-02-28T07:03:45;31.33;;;12.57;;
33154;SDS011;19511;42.682;23.332;2023-02-28T07:06:23;31.83;;;12.98;;
33154;SDS011;19511;42.682;23.332;2023-02-28T07:08:50;23.92;;;13.07;;
33154;SDS011;19511;42.682;23.332;2023-02-28T07:11:17;31.83;;;13.40;;
33154;SDS011;19511;42.682;23.332;2023-02-28T07:13:43;26.65;;;12.02;;
33154;SDS011;19511;42.682;23.332;2023-02-28T07:16:19;31.77;;;13.35;;
33154;SDS011;19511;42.682;23.332;2023-02-28T07:18:54;22.95;;;12.05;;
33154;SDS011;19511;42.682;23.332;2023-02-28T07:21:36;23.17;;;10.75;;
33154;SDS011;19511;42.682;23.332;2023-02-28T07:24:02;26.88;;;12.60;;
33154;SDS011;19511;42.682;23.332;2023-02-28T07:26:27;26.92;;;12.27;;
33154;SDS011;19511;42.682;23.332;2023-02-28T07:28:57;21.65;;;11.45;;
33154;SDS011;19511;42.682;23.332;2023-02-28T07:31:22;26.55;;;13.02;;
33154;SDS011;19511;42.682;23.332;2023-02-28T07:33:54;22.85;;;10.82;;
33154;SDS011;19511;42.682;23.332;2023-02-28T07:36:21;20.30;;;10.25;;
33154;SDS011;19511;42.682;23.332;2023-02-28T07:38:47;26.10;;;12.07;;
33154;SDS011;19511;42.682;23.332;2023-02-28T07:41:16;30.15;;;10.90;;
33154;SDS011;19511;42.682;23.332;2023-02-28T07:43:43;30.95;;;13.38;;
33154;SDS011;19511;42.682;23.332;2023-02-28T07:46:19;38.17;;;15.50;;
33154;SDS011;19511;42.682;23.332;2023-02-28T07:48:56;37.55;;;11.95;;
33154;SDS011;19511;42.682;23.332;2023-02-28T07:51:31;24.35;;;11.90;;
33154;SDS011;19511;42.682;23.332;2023-02-28T07:54:13;33.13;;;13.82;;
33154;SDS011;19511;42.682;23.332;2023-02-28T07:57:01;27.33;;;12.07;;
33154;SDS011;19511;42.682;23.332;2023-02-28T07:59:39;25.30;;;11.93;;
33154;SDS011;19511;42.682;23.332;2023-02-28T08:02:45;23.60;;;11.30;;
33154;SDS011;19511;42.682;23.332;2023-02-28T08:05:20;27.77;;;12.35;;
33154;SDS011;19511;42.682;23.332;2023-02-28T08:08:14;29.70;;;14.70;;
33154;SDS011;19511;42.682;23.332;2023-02-28T08:13:33;32.95;;;13.77;;
33154;SDS011;19511;42.682;23.332;2023-02-28T08:18:48;28.70;;;13.20;;
33154;SDS011;19511;42.682;23.332;2023-02-28T08:21:15;21.35;;;10.73;;
33154;SDS011;19511;42.682;23.332;2023-02-28T08:23:40;31.17;;;12.70;;
33154;SDS011;19511;42.682;23.332;2023-02-28T08:26:06;37.10;;;15.30;;
33154;SDS011;19511;42.682;23.332;2023-02-28T08:28:32;21.58;;;11.52;;
33154;SDS011;19511;42.682;23.332;2023-02-28T08:30:57;19.10;;;10.57;;
33154;SDS011;19511;42.682;23.332;2023-02-28T08:33:23;37.38;;;12.27;;
33154;SDS011;19511;42.682;23.332;2023-02-28T08:38:58;18.95;;;12.48;;
33154;SDS011;19511;42.682;23.332;2023-02-28T08:41:24;21.73;;;11.02;;
33154;SDS011;19511;42.682;23.332;2023-02-28T08:43:50;26.73;;;11.98;;
33154;SDS011;19511;42.682;23.332;2023-02-28T08:50:12;28.48;;;12.77;;
33154;SDS011;19511;42.682;23.332;2023-02-28T08:53:02;20.40;;;12.18;;
33154;SDS011;19511;42.682;23.332;2023-02-28T08:55:28;25.02;;;11.02;;
33154;SDS011;19511;42.682;23.332;2023-02-28T08:57:53;21.33;;;10.93;;
33154;SDS011;19511;42.682;23.332;2023-02-28T09:00:25;25.08;;;10.52;;
33154;SDS011;19511;42.682;23.332;2023-02-28T09:02:54;25.10;;;10.43;;
33154;SDS011;19511;42.682;23.332;2023-02-28T09:05:20;23.02;;;12.00;;
33154;SDS011;19511;42.682;23.332;2023-02-28T09:07:52;33.08;;;11.23;;
33154;SDS011;19511;42.682;23.332;2023-02-28T09:10:17;22.80;;;9.43;;
33154;SDS011;19511;42.682;23.332;2023-02-28T09:12:43;23.13;;;7.78;;
33154;SDS011;19511;42.682;23.332;2023-02-28T09:15:16;15.27;;;7.38;;
33154;SDS011;19511;42.682;23.332;2023-02-28T09:17:45;17.50;;;7.03;;
33154;SDS011;19511;42.682;23.332;2023-02-28T09:20:11;18.65;;;8.68;;
33154;SDS011;19511;42.682;23.332;2023-02-28T09:22:37;15.55;;;6.93;;
33154;SDS011;19511;42.682;23.332;2023-02-28T09:25:02;17.38;;;7.72;;
33154;SDS011;19511;42.682;23.332;2023-02-28T09:27:28;18.15;;;6.68;;
33154;SDS011;19511;42.682;23.332;2023-02-28T09:29:54;18.38;;;8.20;;
33154;SDS011;19511;42.682;23.332;2023-02-28T09:32:24;26.35;;;9.13;;
33154;SDS011;19511;42.682;23.332;2023-02-28T09:34:51;13.45;;;7.68;;
33154;SDS011;19511;42.682;23.332;2023-02-28T09:37:16;23.65;;;9.65;;
33154;SDS011;19511;42.682;23.332;2023-02-28T09:39:42;14.80;;;6.43;;
33154;SDS011;19511;42.682;23.332;2023-02-28T09:42:11;15.45;;;7.50;;
33154;SDS011;19511;42.682;23.332;2023-02-28T09:44:46;17.10;;;7.40;;
33154;SDS011;19511;42.682;23.332;2023-02-28T09:47:14;22.17;;;7.75;;
33154;SDS011;19511;42.682;23.332;2023-02-28T09:49:45;16.52;;;8.27;;
33154;SDS011;19511;42.682;23.332;2023-02-28T09:52:23;18.75;;;8.23;;
33154;SDS011;19511;42.682;23.332;2023-02-28T09:57:58;14.52;;;7.20;;
33154;SDS011;19511;42.682;23.332;2023-02-28T10:03:32;18.70;;;5.57;;
33154;SDS011;19511;42.682;23.332;2023-02-28T10:06:31;19.50;;;7.95;;
33154;SDS011;19511;42.682;23.332;2023-02-28T10:09:24;15.50;;;7.00;;
33154;SDS011;19511;42.682;23.332;2023-02-28T10:11:52;15.27;;;5.55;;
33154;SDS011;19511;42.682;23.332;2023-02-28T10:14:22;20.13;;;8.20;;
33154;SDS011;19511;42.682;23.332;2023-02-28T10:22:17;12.25;;;5.32;;
33154;SDS011;19511;42.682;23.332;2023-02-28T10:25:16;19.70;;;6.43;;
33154;SDS011;19511;42.682;23.332;2023-02-28T10:27:46;15.75;;;4.88;;
33154;SDS011;19511;42.682;23.332;2023-02-28T10:30:15;14.32;;;6.40;;
33154;SDS011;19511;42.682;23.332;2023-02-28T10:32:45;13.82;;;5.72;;
33154;SDS011;19511;42.682;23.332;2023-02-28T10:35:16;18.88;;;5.05;;
33154;SDS011;19511;42.682;23.332;2023-02-28T10:37:43;18.75;;;6.20;;
33154;SDS011;19511;42.682;23.332;2023-02-28T10:43:03;15.68;;;6.15;;
33154;SDS011;19511;42.682;23.332;2023-02-28T10:45:51;19.25;;;5.95;;
33154;SDS011;19511;42.682;23.332;2023-02-28T10:48:39;8.80;;;4.82;;
33154;SDS011;19511;42.682;23.332;2023-02-28T10:51:06;13.00;;;5.70;;
33154;SDS011;19511;42.682;23.332;2023-02-28T10:56:17;18.27;;;6.22;;
33154;SDS011;19511;42.682;23.332;2023-02-28T10:58:51;9.95;;;5.18;;
33154;SDS011;19511;42.682;23.332;2023-02-28T11:01:39;21.25;;;6.28;;
33154;SDS011;19511;42.682;23.332;2023-02-28T11:04:31;16.90;;;6.00;;
33154;SDS011;19511;42.682;23.332;2023-02-28T11:10:16;19.83;;;5.57;;
33154;SDS011;19511;42.682;23.332;2023-02-28T11:12:47;19.83;;;5.57;;
33154;SDS011;19511;42.682;23.332;2023-02-28T11:18:27;14.73;;;6.47;;
33154;SDS011;19511;42.682;23.332;2023-02-28T11:21:25;12.40;;;5.90;;
33154;SDS011;19511;42.682;23.332;2023-02-28T11:24:05;16.52;;;6.32;;
33154;SDS011;19511;42.682;23.332;2023-02-28T11:26:55;20.60;;;6.55;;
33154;SDS011;19511;42.682;23.332;2023-02-28T11:29:25;13.23;;;5.22;;
33154;SDS011;19511;42.682;23.332;2023-02-28T11:32:04;17.58;;;6.80;;
33154;SDS011;19511;42.682;23.332;2023-02-28T11:34:36;15.10;;;6.50;;
33154;SDS011;19511;42.682;23.332;2023-02-28T11:37:03;15.52;;;5.50;;
33154;SDS011;19511;42.682;23.332;2023-02-28T11:39:34;14.15;;;4.68;;
33154;SDS011;19511;42.682;23.332;2023-02-28T11:44:43;19.40;;;5.80;;
33154;SDS011;19511;42.682;23.332;2023-02-28T11:47:26;14.13;;;6.57;;
33154;SDS011;19511;42.682;23.332;2023-02-28T11:52:43;19.27;;;6.35;;
33154;SDS011;19511;42.682;23.332;2023-02-28T12:01:07;17.50;;;5.65;;
33154;SDS011;19511;42.682;23.332;2023-02-28T12:04:30;19.55;;;7.72;;
33154;SDS011;19511;42.682;23.332;2023-02-28T12:10:21;10.70;;;4.53;;
33154;SDS011;19511;42.682;23.332;2023-02-28T12:26:36;14.55;;;5.65;;
33154;SDS011;19511;42.682;23.332;2023-02-28T12:32:01;14.85;;;6.03;;
33154;SDS011;19511;42.682;23.332;2023-02-28T12:34:48;12.02;;;5.90;;
33154;SDS011;19511;42.682;23.332;2023-02-28T12:40:47;11.50;;;5.45;;
33154;SDS011;19511;42.682;23.332;2023-02-28T12:43:21;13.75;;;5.25;;
33154;SDS011;19511;42.682;23.332;2023-02-28T12:46:11;14.80;;;5.75;;
33154;SDS011;19511;42.682;23.332;2023-02-28T12:48:53;13.23;;;5.78;;
33154;SDS011;19511;42.682;23.332;2023-02-28T12:51:23;8.82;;;4.70;;
33154;SDS011;19511;42.682;23.332;2023-02-28T12:54:04;12.25;;;6.28;;
33154;SDS011;19511;42.682;23.332;2023-02-28T12:56:44;18.60;;;6.00;;
33154;SDS011;19511;42.682;23.332;2023-02-28T13:10:39;26.92;;;5.50;;
33154;SDS011;19511;42.682;23.332;2023-02-28T13:13:27;15.85;;;5.90;;
33154;SDS011;19511;42.682;23.332;2023-02-28T13:16:14;15.60;;;6.03;;
33154;SDS011;19511;42.682;23.332;2023-02-28T13:18:41;18.48;;;5.60;;
33154;SDS011;19511;42.682;23.332;2023-02-28T13:24:44;13.27;;;5.28;;
33154;SDS011;19511;42.682;23.332;2023-02-28T13:33:36;16.30;;;5.65;;
33154;SDS011;19511;42.682;23.332;2023-02-28T13:36:26;12.18;;;5.60;;
33154;SDS011;19511;42.682;23.332;2023-02-28T13:48:19;16.10;;;6.03;;
33154;SDS011;19511;42.682;23.332;2023-02-28T14:06:37;19.38;;;5.40;;
33154;SDS011;19511;42.682;23.332;2023-02-28T14:09:40;17.10;;;4.63;;
33154;SDS011;19511;42.682;23.332;2023-02-28T14:18:30;21.52;;;5.78;;
33154;SDS011;19511;42.682;23.332;2023-02-28T14:41:30;17.02;;;5.35;;
33154;SDS011;19511;42.682;23.332;2023-02-28T14:47:11;15.68;;;4.32;;
33154;SDS011;19511;42.682;23.332;2023-02-28T14:49:55;15.98;;;3.63;;
33154;SDS011;19511;42.682;23.332;2023-02-28T14:52:34;12.30;;;3.85;;
33154;SDS011;19511;42.682;23.332;2023-02-28T15:01:10;12.68;;;5.85;;
33154;SDS011;19511;42.682;23.332;2023-02-28T15:03:37;16.17;;;4.78;;
33154;SDS011;19511;42.682;23.332;2023-02-28T15:09:24;15.75;;;4.95;;
33154;SDS011;19511;42.682;23.332;2023-02-28T15:12:01;8.18;;;4.07;;
33154;SDS011;19511;42.682;23.332;2023-02-28T15:14:51;8.98;;;4.40;;
33154;SDS011;19511;42.682;23.332;2023-02-28T15:17:54;12.38;;;6.03;;
33154;SDS011;19511;42.682;23.332;2023-02-28T15:20:34;7.32;;;3.55;;
33154;SDS011;19511;42.682;23.332;2023-02-28T15:23:12;9.27;;;4.32;;
33154;SDS011;19511;42.682;23.332;2023-02-28T15:26:00;9.65;;;4.18;;
33154;SDS011;19511;42.682;23.332;2023-02-28T15:28:26;9.43;;;4.63;;
33154;SDS011;19511;42.682;23.332;2023-02-28T15:30:55;11.65;;;4.35;;
33154;SDS011;19511;42.682;23.332;2023-02-28T15:33:30;5.88;;;2.92;;
33154;SDS011;19511;42.682;23.332;2023-02-28T15:36:14;9.15;;;3.88;;
33154;SDS011;19511;42.682;23.332;2023-02-28T15:38:42;8.07;;;3.53;;
33154;SDS011;19511;42.682;23.332;2023-02-28T15:44:14;7.97;;;3.75;;
33154;SDS011;19511;42.682;23.332;2023-02-28T15:47:33;7.20;;;3.58;;
33154;SDS011;19511;42.682;23.332;2023-02-28T15:49:48;4.57;;;2.80;;
33154;SDS011;19511;42.682;23.332;2023-02-28T15:52:18;8.60;;;3.67;;
33154;SDS011;19511;42.682;23.332;2023-02-28T15:54:47;9.52;;;4.97;;
33154;SDS011;19511;42.682;23.332;2023-02-28T15:57:23;10.93;;;3.85;;
33154;SDS011;19511;42.682;23.332;2023-02-28T15:59:56;7.45;;;3.45;;
33154;SDS011;19511;42.682;23.332;2023-02-28T16:02:32;9.07;;;4.93;;
33154;SDS011;19511;42.682;23.332;2023-02-28T16:07:36;8.48;;;4.60;;
33154;SDS011;19511;42.682;23.332;2023-02-28T16:12:54;7.28;;;4.53;;
33154;SDS011;19511;42.682;23.332;2023-02-28T16:15:24;12.70;;;4.82;;
33154;SDS011;19511;42.682;23.332;2023-02-28T16:17:53;5.65;;;3.10;;
33154;SDS011;19511;42.682;23.332;2023-02-28T16:20:27;6.00;;;3.38;;
33154;SDS011;19511;42.682;23.332;2023-02-28T16:22:57;12.95;;;4.47;;
33154;SDS011;19511;42.682;23.332;2023-02-28T16:25:35;15.77;;;3.53;;
33154;SDS011;19511;42.682;23.332;2023-02-28T16:28:15;10.15;;;3.72;;
33154;SDS011;19511;42.682;23.332;2023-02-28T16:30:53;7.97;;;3.30;;
33154;SDS011;19511;42.682;23.332;2023-02-28T16:33:29;6.65;;;3.25;;
33154;SDS011;19511;42.682;23.332;2023-02-28T16:36:01;7.20;;;4.30;;
33154;SDS011;19511;42.682;23.332;2023-02-28T16:38:30;6.75;;;3.22;;
33154;SDS011;19511;42.682;23.332;2023-02-28T16:41:03;3.83;;;2.45;;
33154;SDS011;19511;42.682;23.332;2023-02-28T16:43:36;8.18;;;3.67;;
33154;SDS011;19511;42.682;23.332;2023-02-28T16:46:08;4.75;;;2.78;;
33154;SDS011;19511;42.682;23.332;2023-02-28T16:48:39;7.18;;;2.90;;
33154;SDS011;19511;42.682;23.332;2023-02-28T16:51:14;4.78;;;2.47;;
33154;SDS011;19511;42.682;23.332;2023-02-28T16:53:42;8.23;;;3.45;;
33154;SDS011;19511;42.682;23.332;2023-02-28T16:56:15;2.42;;;1.90;;
33154;SDS011;19511;42.682;23.332;2023-02-28T16:58:55;4.78;;;2.70;;
33154;SDS011;19511;42.682;23.332;2023-02-28T17:01:25;4.45;;;2.50;;
33154;SDS011;19511;42.682;23.332;2023-02-28T17:06:30;4.85;;;2.38;;
33154;SDS011;19511;42.682;23.332;2023-02-28T17:08:56;6.60;;;2.85;;
33154;SDS011;19511;42.682;23.332;2023-02-28T17:11:26;4.63;;;2.72;;
33154;SDS011;19511;42.682;23.332;2023-02-28T17:13:52;4.15;;;2.20;;
33154;SDS011;19511;42.682;23.332;2023-02-28T17:16:22;7.32;;;2.72;;
33154;SDS011;19511;42.682;23.332;2023-02-28T17:18:57;7.20;;;2.70;;
33154;SDS011;19511;42.682;23.332;2023-02-28T17:21:24;5.57;;;2.83;;
33154;SDS011;19511;42.682;23.332;2023-02-28T17:23:50;3.97;;;2.03;;
33154;SDS011;19511;42.682;23.332;2023-02-28T17:26:20;5.53;;;1.90;;
33154;SDS011;19511;42.682;23.332;2023-02-28T17:28:47;6.90;;;2.67;;
33154;SDS011;19511;42.682;23.332;2023-02-28T17:31:13;3.72;;;1.98;;
33154;SDS011;19511;42.682;23.332;2023-02-28T17:33:39;5.38;;;2.00;;
33154;SDS011;19511;42.682;23.332;2023-02-28T17:36:05;2.85;;;1.98;;
33154;SDS011;19511;42.682;23.332;2023-02-28T17:38:31;4.70;;;1.90;;
33154;SDS011;19511;42.682;23.332;2023-02-28T17:40:56;2.00;;;1.20;;
33154;SDS011;19511;42.682;23.332;2023-02-28T17:43:23;2.75;;;1.30;;
33154;SDS011;19511;42.682;23.332;2023-02-28T17:45:54;1.95;;;1.50;;
33154;SDS011;19511;42.682;23.332;2023-02-28T17:48:20;7.13;;;2.58;;
33154;SDS011;19511;42.682;23.332;2023-02-28T17:50:46;6.38;;;2.40;;
33154;SDS011;19511;42.682;23.332;2023-02-28T17:53:11;6.68;;;3.38;;
33154;SDS011;19511;42.682;23.332;2023-02-28T17:55:40;3.20;;;1.73;;
33154;SDS011;19511;42.682;23.332;2023-02-28T17:58:05;5.20;;;2.30;;
33154;SDS011;19511;42.682;23.332;2023-02-28T18:00:39;3.60;;;1.92;;
33154;SDS011;19511;42.682;23.332;2023-02-28T18:03:05;2.33;;;1.50;;
33154;SDS011;19511;42.682;23.332;2023-02-28T18:05:31;2.80;;;2.05;;
33154;SDS011;19511;42.682;23.332;2023-02-28T18:08:04;4.78;;;1.73;;
33154;SDS011;19511;42.682;23.332;2023-02-28T18:10:30;4.18;;;2.00;;
33154;SDS011;19511;42.682;23.332;2023-02-28T18:12:58;4.18;;;2.05;;
33154;SDS011;19511;42.682;23.332;2023-02-28T18:15:24;8.55;;;2.00;;
33154;SDS011;19511;42.682;23.332;2023-02-28T18:17:56;2.75;;;1.90;;
33154;SDS011;19511;42.682;23.332;2023-02-28T18:20:24;3.15;;;2.25;;
33154;SDS011;19511;42.682;23.332;2023-02-28T18:22:54;2.22;;;1.60;;
33154;SDS011;19511;42.682;23.332;2023-02-28T18:25:24;5.00;;;2.38;;